Time;durP1;ratioP1;P1;durP2;ratioP2;P2;SDS_P1;SDS_P2;PMS_P1;PMS_P2;Temp;Humidity;BMP_temperature;BMP_pressure;BME280_temperature;BME280_humidity;BME280_pressure;Samples;Min_cycle;Max_cycle;Signal;HPM_P1;HPM_P2
2022/01/25 00:10:15;;;;;;;15.23;10.13;;;1.10;99.90;;;;;;5031287;28;20200;-70
2022/01/25 00:24:20;;;;;;;16.17;9.95;;;1.00;99.90;;;;;;5035132;28;20193;-70
2022/01/25 00:25:45;;;;;;;12.45;9.55;;;1.40;99.90;;;;;;5005757;28;20213;-69
2022/01/25 00:28:47;;;;;;;14.88;9.82;;;1.30;99.90;;;;;;5022796;28;20201;-70
2022/01/25 00:31:37;;;;;;;15.90;10.40;;;1.40;99.90;;;;;;5034782;28;20313;-70
2022/01/25 00:34:22;;;;;;;14.65;9.93;;;1.40;99.90;;;;;;5032522;28;20271;-69
2022/01/25 00:37:08;;;;;;;16.67;10.23;;;1.30;99.90;;;;;;5036041;28;20240;-70
2022/01/25 00:39:53;;;;;;;11.02;8.88;;;1.30;99.90;;;;;;5018902;28;20565;-70
2022/01/25 00:42:39;;;;;;;14.88;10.77;;;1.10;99.90;;;;;;5035240;28;20225;-70
2022/01/25 00:45:28;;;;;;;26.42;9.90;;;1.10;99.90;;;;;;5036934;28;20226;-70
2022/01/25 00:48:19;;;;;;;18.75;10.10;;;1.10;99.90;;;;;;5036341;28;20209;-68
2022/01/25 00:51:19;;;;;;;15.90;10.82;;;1.00;99.90;;;;;;5031758;28;20276;-71
2022/01/25 00:54:11;;;;;;;18.95;10.90;;;1.00;99.90;;;;;;5039215;28;20340;-69
2022/01/25 00:56:58;;;;;;;19.52;9.80;;;0.80;99.90;;;;;;5040975;28;20197;-70
2022/01/25 00:59:44;;;;;;;19.90;11.25;;;0.80;99.90;;;;;;5025105;28;20209;-69
2022/01/25 01:02:30;;;;;;;15.90;10.82;;;0.90;99.90;;;;;;5037679;28;20197;-70
2022/01/25 01:05:17;;;;;;;17.30;10.15;;;0.80;99.90;;;;;;5034793;28;20225;-69
2022/01/25 01:08:03;;;;;;;21.88;14.63;;;0.60;99.90;;;;;;5029100;28;20345;-70
2022/01/25 01:10:48;;;;;;;20.52;13.45;;;0.60;99.90;;;;;;5032321;28;20593;-71
2022/01/25 01:16:56;;;;;;;19.75;13.63;;;0.70;99.90;;;;;;5029741;28;20293;-68
2022/01/25 01:32:06;;;;;;;23.92;14.13;;;0.50;99.90;;;;;;5034231;28;20204;-70
2022/01/25 01:38:22;;;;;;;24.85;13.52;;;0.60;99.90;;;;;;5014096;28;20612;-87
2022/01/25 01:41:26;;;;;;;19.90;13.50;;;0.80;99.90;;;;;;5094517;22;20226;-71
2022/01/25 01:44:20;;;;;;;20.83;12.82;;;0.90;99.90;;;;;;5092544;28;20187;-71
2022/01/25 01:47:09;;;;;;;20.95;13.95;;;0.90;99.90;;;;;;5061020;28;20272;-71
2022/01/25 01:49:56;;;;;;;17.40;10.63;;;1.00;99.90;;;;;;5072925;28;20234;-71
2022/01/25 01:52:42;;;;;;;19.15;11.25;;;1.10;99.90;;;;;;5074388;28;20322;-71
2022/01/25 01:55:29;;;;;;;13.20;9.38;;;1.00;99.90;;;;;;5072504;28;20228;-71
2022/01/25 01:58:16;;;;;;;23.10;10.75;;;0.80;99.90;;;;;;5071377;28;20243;-71
2022/01/25 02:01:01;;;;;;;16.05;11.27;;;0.70;99.90;;;;;;5071577;28;20200;-71
2022/01/25 02:03:48;;;;;;;16.17;11.32;;;0.60;99.90;;;;;;5073493;28;20676;-71
2022/01/25 02:06:34;;;;;;;17.30;11.18;;;0.50;99.90;;;;;;5065169;28;20294;-71
2022/01/25 02:09:20;;;;;;;19.95;12.98;;;0.40;99.90;;;;;;5072246;28;20203;-71
2022/01/25 02:12:08;;;;;;;19.38;12.90;;;0.40;99.90;;;;;;5071041;28;20676;-71
2022/01/25 02:14:55;;;;;;;17.20;12.73;;;0.40;99.90;;;;;;5053671;28;20275;-71
2022/01/25 02:17:57;;;;;;;22.98;12.55;;;0.40;99.90;;;;;;5068291;28;20246;-71
2022/01/25 02:23:48;;;;;;;19.08;12.23;;;0.30;99.90;;;;;;5053540;28;20200;-71
2022/01/25 02:26:33;;;;;;;18.10;12.15;;;0.40;99.90;;;;;;5063308;28;20228;-72
2022/01/25 02:29:19;;;;;;;19.20;12.25;;;0.60;99.90;;;;;;5062749;28;20307;-71
2022/01/25 02:32:06;;;;;;;18.92;12.77;;;0.70;99.90;;;;;;5072680;28;20664;-71
2022/01/25 02:34:52;;;;;;;17.95;11.55;;;0.70;99.90;;;;;;5068085;28;20708;-71
2022/01/25 02:37:39;;;;;;;20.60;12.23;;;0.60;99.90;;;;;;5069889;28;20207;-71
2022/01/25 02:40:25;;;;;;;23.52;13.38;;;0.70;99.90;;;;;;5056322;28;20220;-71
2022/01/25 02:43:12;;;;;;;17.00;11.90;;;0.50;99.90;;;;;;5070904;28;20708;-71
2022/01/25 02:46:20;;;;;;;23.27;13.02;;;0.40;99.90;;;;;;5068594;28;20255;-71
2022/01/25 02:49:08;;;;;;;17.20;12.30;;;0.40;99.90;;;;;;5068178;28;20201;-71
2022/01/25 02:51:54;;;;;;;22.77;11.60;;;0.30;99.90;;;;;;5062141;28;20227;-71
2022/01/25 02:54:41;;;;;;;17.55;11.52;;;0.30;99.90;;;;;;5060932;28;20208;-71
2022/01/25 02:57:27;;;;;;;18.63;12.60;;;0.40;99.90;;;;;;5066670;28;20311;-71
2022/01/25 03:00:15;;;;;;;16.35;11.18;;;0.50;99.90;;;;;;5071718;28;20196;-71
2022/01/25 03:03:01;;;;;;;14.25;9.65;;;0.70;99.90;;;;;;5057898;28;20256;-71
2022/01/25 03:05:46;;;;;;;13.63;9.23;;;0.70;99.90;;;;;;5070098;28;20372;-71
2022/01/25 03:08:32;;;;;;;12.30;9.02;;;0.70;99.90;;;;;;5051914;28;20320;-71
2022/01/25 03:11:22;;;;;;;14.73;9.63;;;0.70;99.90;;;;;;5052532;28;20189;-71
2022/01/25 03:14:08;;;;;;;15.30;9.25;;;0.60;99.90;;;;;;5059160;28;20278;-71
2022/01/25 03:17:07;;;;;;;15.60;10.70;;;0.50;99.90;;;;;;5066394;28;20204;-71
2022/01/25 03:20:03;;;;;;;17.55;10.13;;;0.30;99.90;;;;;;5070944;28;20282;-71
2022/01/25 03:22:59;;;;;;;13.50;10.48;;;0.20;99.90;;;;;;5072304;28;20204;-71
2022/01/25 03:25:47;;;;;;;18.98;11.50;;;0.00;99.90;;;;;;5058719;28;20220;-71
2022/01/25 03:28:34;;;;;;;15.20;10.70;;;0.00;99.90;;;;;;5071559;28;20259;-71
2022/01/25 03:31:20;;;;;;;22.85;11.73;;;-0.10;99.90;;;;;;5071894;28;20212;-71
2022/01/25 03:34:06;;;;;;;16.55;11.27;;;-0.10;99.90;;;;;;5073212;28;20200;-71
2022/01/25 03:36:51;;;;;;;17.30;10.45;;;-0.10;99.90;;;;;;5070160;28;20583;-71
2022/01/25 03:39:37;;;;;;;14.98;11.02;;;-0.10;99.90;;;;;;5070591;28;20222;-71
2022/01/25 03:42:23;;;;;;;17.60;11.82;;;-0.20;99.90;;;;;;5063937;28;20196;-71
2022/01/25 03:45:18;;;;;;;27.70;13.60;;;-0.10;99.90;;;;;;5066911;28;20221;-71
2022/01/25 03:51:03;;;;;;;22.42;12.55;;;-0.20;99.90;;;;;;5071070;28;20247;-71
2022/01/25 03:53:48;;;;;;;20.98;12.15;;;-0.20;99.90;;;;;;5071115;28;20313;-71
2022/01/25 03:56:35;;;;;;;16.30;11.98;;;-0.20;99.90;;;;;;5057352;28;20299;-71
2022/01/25 03:59:20;;;;;;;19.27;13.10;;;-0.10;99.90;;;;;;5061230;28;20709;-71
2022/01/25 04:02:07;;;;;;;19.42;13.00;;;-0.20;99.90;;;;;;5069744;28;20590;-71
2022/01/25 04:04:53;;;;;;;30.48;14.27;;;0.00;99.90;;;;;;5066344;28;20334;-71
2022/01/25 04:07:48;;;;;;;19.83;13.18;;;0.00;99.90;;;;;;5061026;28;20275;-71
2022/01/25 04:10:34;;;;;;;18.75;12.38;;;0.20;99.90;;;;;;5069653;28;20200;-71
2022/01/25 04:13:20;;;;;;;16.40;9.70;;;0.40;99.90;;;;;;5069757;28;20204;-71
2022/01/25 04:16:11;;;;;;;12.40;9.63;;;0.40;99.90;;;;;;5067314;28;20235;-71
2022/01/25 04:19:05;;;;;;;12.98;9.63;;;0.40;99.90;;;;;;5068362;28;20219;-71
2022/01/25 04:25:04;;;;;;;14.32;10.73;;;0.40;99.90;;;;;;5064352;28;20235;-71
2022/01/25 04:27:50;;;;;;;14.80;9.95;;;0.40;99.90;;;;;;5066255;28;20780;-71
2022/01/25 04:30:36;;;;;;;14.73;9.30;;;0.40;99.90;;;;;;5062374;28;20256;-71
2022/01/25 04:33:25;;;;;;;14.32;9.05;;;0.50;99.90;;;;;;5060389;28;20204;-72
2022/01/25 04:36:38;;;;;;;16.42;10.93;;;0.40;99.90;;;;;;5061118;28;20344;-71
2022/01/25 04:51:54;;;;;;;16.27;10.85;;;0.10;99.90;;;;;;5071367;28;20220;-71
2022/01/25 04:54:48;;;;;;;13.95;10.30;;;0.20;99.90;;;;;;5067839;28;20575;-71
2022/01/25 04:57:43;;;;;;;20.27;10.75;;;0.30;99.90;;;;;;5061479;28;20217;-71
2022/01/25 05:00:29;;;;;;;16.77;10.70;;;0.10;99.90;;;;;;5065054;28;20205;-71
2022/01/25 05:03:22;;;;;;;20.08;11.70;;;0.00;99.90;;;;;;5068502;28;20338;-71
2022/01/25 05:06:12;;;;;;;24.35;12.43;;;0.10;99.90;;;;;;5063302;28;20263;-71
2022/01/25 05:09:08;;;;;;;20.90;12.40;;;0.10;99.90;;;;;;5067383;28;20220;-71
2022/01/25 05:11:57;;;;;;;18.25;11.23;;;0.20;99.90;;;;;;5067140;28;20197;-71
2022/01/25 05:14:57;;;;;;;19.10;11.30;;;0.20;99.90;;;;;;5066872;28;20216;-71
2022/01/25 05:17:45;;;;;;;14.82;10.52;;;0.20;99.90;;;;;;5063947;28;20204;-71
2022/01/25 05:23:35;;;;;;;15.95;11.00;;;-0.10;99.90;;;;;;5069932;28;20226;-71
2022/01/25 05:26:23;;;;;;;15.50;11.27;;;-0.10;99.90;;;;;;5063958;28;20232;-71
2022/01/25 05:29:09;;;;;;;17.63;12.00;;;-0.30;99.90;;;;;;5073495;28;20215;-71
2022/01/25 05:31:54;;;;;;;21.23;13.23;;;-0.50;99.90;;;;;;5073763;28;20212;-71
2022/01/25 05:34:40;;;;;;;21.52;14.23;;;-0.50;99.90;;;;;;5059788;28;20712;-71
2022/01/25 05:37:26;;;;;;;23.30;12.40;;;-0.60;99.90;;;;;;5064953;28;20250;-71
2022/01/25 05:40:17;;;;;;;25.08;13.88;;;-0.50;99.90;;;;;;5061004;28;20217;-71
2022/01/25 05:46:13;;;;;;;39.53;16.55;;;-0.60;99.90;;;;;;5061883;28;20216;-71
2022/01/25 05:48:59;;;;;;;35.85;16.73;;;-0.60;99.90;;;;;;5073296;28;20709;-71
2022/01/25 05:51:44;;;;;;;32.05;17.50;;;-0.60;99.90;;;;;;5064477;28;20660;-71
2022/01/25 05:54:30;;;;;;;34.30;16.13;;;-0.70;99.90;;;;;;5065714;28;20217;-71
2022/01/25 05:57:16;;;;;;;30.75;17.42;;;-0.50;99.90;;;;;;5066291;28;20216;-71
2022/01/25 06:00:06;;;;;;;33.03;17.30;;;-0.30;99.90;;;;;;5071093;28;20212;-71
2022/01/25 06:02:54;;;;;;;36.00;17.80;;;-0.30;99.90;;;;;;5065696;28;20550;-72
2022/01/25 06:05:40;;;;;;;35.13;17.85;;;-0.10;99.90;;;;;;5060164;28;20729;-71
2022/01/25 06:08:25;;;;;;;33.53;16.33;;;0.00;99.90;;;;;;5067571;28;20291;-71
2022/01/25 06:11:11;;;;;;;28.73;15.27;;;0.20;99.90;;;;;;5072209;28;20211;-71
2022/01/25 06:13:56;;;;;;;30.13;16.42;;;0.30;99.90;;;;;;5069875;28;20228;-71
2022/01/25 06:16:43;;;;;;;33.83;15.52;;;0.30;99.90;;;;;;5072725;28;20593;-71
2022/01/25 06:19:29;;;;;;;30.50;16.48;;;0.20;99.90;;;;;;5071972;28;20192;-71
2022/01/25 06:22:15;;;;;;;35.10;19.70;;;0.20;99.90;;;;;;5066416;28;20822;-71
2022/01/25 06:25:01;;;;;;;33.95;17.40;;;0.20;99.90;;;;;;5068981;28;20239;-71
2022/01/25 06:27:47;;;;;;;37.00;18.15;;;0.10;99.90;;;;;;5071580;28;20282;-71
2022/01/25 06:30:32;;;;;;;53.90;18.95;;;0.10;99.90;;;;;;5066129;28;20204;-71
2022/01/25 06:33:19;;;;;;;39.53;19.85;;;0.00;99.90;;;;;;5071384;28;20685;-71
2022/01/25 06:36:06;;;;;;;65.05;24.25;;;0.00;99.90;;;;;;5071393;28;20270;-71
2022/01/25 06:38:51;;;;;;;56.78;24.42;;;0.00;99.90;;;;;;5062976;28;20197;-71
2022/01/25 06:41:38;;;;;;;43.45;23.52;;;-0.10;99.90;;;;;;5066118;28;20211;-71
2022/01/25 06:44:23;;;;;;;44.38;22.98;;;-0.10;99.90;;;;;;5072356;28;20637;-71
2022/01/25 06:47:09;;;;;;;44.70;23.38;;;0.10;99.90;;;;;;5065896;28;20204;-71
2022/01/25 06:49:56;;;;;;;39.75;22.67;;;0.10;99.90;;;;;;5056950;28;20340;-71
2022/01/25 06:52:42;;;;;;;39.60;21.85;;;0.20;99.90;;;;;;5066001;28;20212;-71
2022/01/25 06:55:28;;;;;;;40.55;20.88;;;0.10;99.90;;;;;;5062730;28;20224;-71
2022/01/25 06:58:14;;;;;;;35.90;20.80;;;0.20;99.90;;;;;;5070890;28;20297;-71
2022/01/25 07:01:00;;;;;;;41.78;22.20;;;0.30;99.90;;;;;;5063241;28;20204;-71
2022/01/25 07:03:46;;;;;;;36.15;20.08;;;0.30;99.90;;;;;;5064807;28;20264;-71
2022/01/25 07:06:33;;;;;;;37.85;20.65;;;0.20;99.90;;;;;;5066003;28;20298;-71
2022/01/25 07:09:18;;;;;;;32.55;20.52;;;0.00;99.90;;;;;;5071491;28;20344;-71
2022/01/25 07:12:05;;;;;;;33.05;18.70;;;-0.20;99.90;;;;;;5069467;28;20204;-71
2022/01/25 07:14:51;;;;;;;31.60;19.67;;;-0.20;99.90;;;;;;5070488;28;20254;-71
2022/01/25 07:17:36;;;;;;;61.40;18.38;;;-0.30;99.90;;;;;;5061352;28;20201;-71
2022/01/25 07:20:22;;;;;;;33.30;18.85;;;-0.20;99.90;;;;;;5057517;28;20220;-71
2022/01/25 07:23:09;;;;;;;39.13;22.02;;;-0.30;99.90;;;;;;5068060;28;20813;-71
2022/01/25 07:25:54;;;;;;;37.78;22.85;;;-0.20;99.90;;;;;;5063949;28;20597;-71
2022/01/25 07:28:40;;;;;;;50.85;22.65;;;-0.10;99.90;;;;;;5069988;28;20212;-71
2022/01/25 07:31:26;;;;;;;40.65;21.55;;;0.10;99.90;;;;;;5064307;28;20223;-71
2022/01/25 07:34:11;;;;;;;49.80;22.13;;;0.20;99.90;;;;;;5070734;28;20204;-71
2022/01/25 07:36:57;;;;;;;62.92;24.20;;;0.20;99.90;;;;;;5069328;28;20565;-71
2022/01/25 07:39:45;;;;;;;38.13;22.35;;;0.30;99.90;;;;;;5075447;22;20728;-72
2022/01/25 07:42:34;;;;;;;41.55;25.13;;;0.20;99.90;;;;;;5041040;28;20538;-72
2022/01/25 07:45:21;;;;;;;41.75;20.25;;;0.10;99.90;;;;;;5049334;28;20280;-74
2022/01/25 07:48:08;;;;;;;36.63;22.45;;;0.20;99.90;;;;;;5056001;28;20674;-72
2022/01/25 07:50:54;;;;;;;39.72;19.90;;;0.20;99.90;;;;;;5065742;28;20199;-74
2022/01/25 07:53:41;;;;;;;36.50;19.58;;;0.30;99.90;;;;;;5069121;28;20243;-72
2022/01/25 07:56:28;;;;;;;29.85;18.95;;;0.30;99.90;;;;;;5067544;28;20226;-74
2022/01/25 07:59:14;;;;;;;52.30;24.17;;;0.40;99.90;;;;;;5069277;28;20227;-72
2022/01/25 08:02:00;;;;;;;37.72;22.90;;;0.40;99.90;;;;;;5067805;28;20625;-72
2022/01/25 08:04:46;;;;;;;39.42;22.13;;;0.30;99.90;;;;;;5069023;28;20204;-72
2022/01/25 08:07:32;;;;;;;32.97;18.85;;;0.20;99.90;;;;;;5069237;28;20215;-72
2022/01/25 08:10:18;;;;;;;28.38;16.85;;;0.10;99.90;;;;;;5068498;28;20219;-72
2022/01/25 08:13:05;;;;;;;27.13;15.50;;;0.10;99.90;;;;;;5068765;28;20565;-72
2022/01/25 08:15:51;;;;;;;27.23;17.40;;;0.30;99.90;;;;;;5068214;28;20688;-73
2022/01/25 08:18:36;;;;;;;26.55;16.85;;;0.30;99.90;;;;;;5069449;28;20720;-72
2022/01/25 08:21:22;;;;;;;30.02;16.85;;;0.30;99.90;;;;;;5068907;28;20242;-72
2022/01/25 08:24:09;;;;;;;26.83;16.50;;;0.40;99.90;;;;;;5068937;28;20273;-72
2022/01/25 08:26:54;;;;;;;28.95;16.30;;;0.50;99.90;;;;;;5071229;28;20239;-72
2022/01/25 08:29:41;;;;;;;36.92;20.45;;;0.70;99.90;;;;;;5064306;28;20261;-72
2022/01/25 08:32:27;;;;;;;50.67;26.13;;;0.70;99.90;;;;;;5067704;28;20665;-73
2022/01/25 08:35:13;;;;;;;35.78;19.55;;;0.70;99.90;;;;;;5070465;28;20208;-71
2022/01/25 08:37:58;;;;;;;42.53;21.10;;;0.80;99.90;;;;;;5069952;28;20192;-72
2022/01/25 08:40:44;;;;;;;41.60;24.48;;;0.80;99.90;;;;;;5062839;28;20192;-72
2022/01/25 08:43:31;;;;;;;53.65;26.48;;;0.90;99.90;;;;;;5063271;28;20209;-73
2022/01/25 08:46:19;;;;;;;45.92;25.60;;;1.00;99.90;;;;;;5075947;28;20295;-73
2022/01/25 08:49:04;;;;;;;51.92;27.13;;;0.90;99.90;;;;;;5068342;28;20271;-72
2022/01/25 08:51:50;;;;;;;48.78;26.50;;;1.00;99.90;;;;;;5069542;28;20227;-73
2022/01/25 08:54:36;;;;;;;35.75;22.45;;;1.00;99.90;;;;;;5073031;28;20212;-73
2022/01/25 08:57:22;;;;;;;32.60;21.00;;;1.10;99.90;;;;;;5068196;28;20213;-73
2022/01/25 09:00:11;;;;;;;34.28;21.02;;;1.10;99.90;;;;;;5070414;28;20247;-74
2022/01/25 09:02:59;;;;;;;32.67;16.75;;;1.00;99.90;;;;;;5070391;28;20276;-73
2022/01/25 09:05:45;;;;;;;28.45;17.85;;;1.00;99.90;;;;;;5074693;28;20562;-72
2022/01/25 09:08:31;;;;;;;31.63;20.88;;;1.00;99.90;;;;;;5073640;28;20310;-73
2022/01/25 09:11:18;;;;;;;31.30;19.70;;;1.10;99.90;;;;;;5073704;28;20211;-73
2022/01/25 09:14:04;;;;;;;31.38;19.23;;;1.00;99.90;;;;;;5073969;28;20700;-73
2022/01/25 09:16:49;;;;;;;36.58;20.85;;;1.10;99.90;;;;;;5074634;28;20266;-72
2022/01/25 09:19:38;;;;;;;31.42;20.35;;;1.10;99.90;;;;;;5069195;28;20578;-74
2022/01/25 09:22:24;;;;;;;39.63;21.20;;;1.10;99.90;;;;;;5069820;28;20784;-72
2022/01/25 09:25:12;;;;;;;50.42;24.15;;;1.20;99.90;;;;;;5077095;28;20281;-72
2022/01/25 09:27:58;;;;;;;57.50;24.98;;;1.20;99.90;;;;;;5073345;28;20262;-73
2022/01/25 09:30:44;;;;;;;33.60;20.10;;;1.20;99.90;;;;;;5064239;28;20827;-72
2022/01/25 09:33:30;;;;;;;32.20;20.70;;;1.20;99.90;;;;;;5070086;28;20216;-72
2022/01/25 09:36:17;;;;;;;29.30;19.48;;;1.30;99.90;;;;;;5071961;28;20758;-73
2022/01/25 09:39:03;;;;;;;37.85;22.50;;;1.30;99.90;;;;;;5071307;28;20291;-74
2022/01/25 09:41:49;;;;;;;34.75;21.23;;;1.40;99.90;;;;;;5070099;28;20208;-71
2022/01/25 09:44:36;;;;;;;37.70;20.70;;;1.40;99.90;;;;;;5067842;28;20193;-71
2022/01/25 09:47:21;;;;;;;42.17;23.25;;;1.40;99.90;;;;;;5070079;28;20692;-73
2022/01/25 09:50:08;;;;;;;43.97;22.55;;;1.50;99.90;;;;;;5068561;28;20299;-71
2022/01/25 09:52:55;;;;;;;45.85;22.35;;;1.50;99.90;;;;;;5069335;28;20246;-73
2022/01/25 09:55:43;;;;;;;47.28;23.60;;;1.50;99.90;;;;;;5072227;28;20216;-73
2022/01/25 09:58:29;;;;;;;48.45;24.20;;;1.50;99.90;;;;;;5053704;28;20268;-72
2022/01/25 10:01:15;;;;;;;46.85;22.13;;;1.60;99.90;;;;;;5068562;28;20208;-72
2022/01/25 10:04:04;;;;;;;57.53;22.80;;;1.40;99.90;;;;;;5073277;28;20713;-72
2022/01/25 10:06:51;;;;;;;41.88;22.27;;;1.40;99.90;;;;;;5073779;28;20278;-72
2022/01/25 10:09:41;;;;;;;49.88;25.70;;;1.40;99.90;;;;;;5065758;28;20228;-72
2022/01/25 10:12:27;;;;;;;40.55;23.80;;;1.50;99.90;;;;;;5073417;28;20258;-72
2022/01/25 10:15:13;;;;;;;50.97;23.48;;;1.70;99.90;;;;;;5071915;28;20199;-71
2022/01/25 10:17:59;;;;;;;55.63;27.40;;;1.70;99.90;;;;;;5071548;28;20204;-71
2022/01/25 10:20:47;;;;;;;52.60;26.75;;;1.80;99.90;;;;;;5068321;28;20203;-72
2022/01/25 10:23:35;;;;;;;56.70;28.00;;;1.80;99.90;;;;;;5072032;28;20204;-74
2022/01/25 10:26:24;;;;;;;51.13;26.13;;;1.80;99.90;;;;;;5068908;28;20251;-72
2022/01/25 10:29:12;;;;;;;63.75;27.33;;;1.90;99.90;;;;;;5065559;28;20306;-72
2022/01/25 10:32:01;;;;;;;58.25;26.05;;;1.90;99.90;;;;;;5069549;28;20205;-72
2022/01/25 10:34:50;;;;;;;59.58;26.20;;;2.10;99.90;;;;;;5073629;28;20212;-72
2022/01/25 10:37:42;;;;;;;48.50;24.50;;;2.10;99.90;;;;;;5068519;28;20196;-73
2022/01/25 10:40:39;;;;;;;53.08;24.45;;;2.20;99.90;;;;;;5070088;28;20218;-72
2022/01/25 10:43:28;;;;;;;57.58;27.70;;;2.20;99.90;;;;;;5072915;28;20195;-73
2022/01/25 10:46:18;;;;;;;62.78;28.13;;;2.20;99.90;;;;;;5072829;28;20307;-72
2022/01/25 10:49:06;;;;;;;72.85;28.20;;;2.30;99.90;;;;;;5068595;28;20594;-73
2022/01/25 10:51:52;;;;;;;68.25;29.13;;;2.30;99.90;;;;;;5066406;28;20270;-73
2022/01/25 10:54:40;;;;;;;66.32;24.95;;;2.30;99.90;;;;;;5081776;28;20203;-73
2022/01/25 10:57:26;;;;;;;71.88;28.85;;;2.40;99.90;;;;;;5052390;28;20193;-73
2022/01/25 11:00:14;;;;;;;72.82;28.83;;;2.50;99.90;;;;;;5064928;28;20216;-72
2022/01/25 11:03:00;;;;;;;84.40;30.52;;;2.50;99.90;;;;;;5068453;28;20674;-73
2022/01/25 11:05:46;;;;;;;102.13;32.42;;;2.50;99.90;;;;;;5072314;28;20208;-71
2022/01/25 11:08:32;;;;;;;67.65;29.48;;;2.40;99.90;;;;;;5067270;28;20240;-72
2022/01/25 11:11:30;;;;;;;84.35;30.98;;;2.50;99.90;;;;;;5052501;28;20255;-72
2022/01/25 11:17:23;;;;;;;76.38;32.13;;;2.40;99.90;;;;;;5064982;28;20223;-71
2022/01/25 11:20:10;;;;;;;74.82;32.78;;;2.40;99.90;;;;;;5067896;28;20283;-72
2022/01/25 11:22:56;;;;;;;79.05;30.90;;;2.50;99.90;;;;;;5069591;28;20322;-72
2022/01/25 11:25:43;;;;;;;71.78;30.10;;;2.50;99.90;;;;;;5071154;28;20796;-74
2022/01/25 11:28:31;;;;;;;76.88;33.08;;;2.50;99.90;;;;;;5061010;28;20581;-72
2022/01/25 11:31:20;;;;;;;70.95;31.58;;;2.60;99.90;;;;;;5071266;28;20732;-71
2022/01/25 11:34:13;;;;;;;67.65;31.60;;;2.60;99.90;;;;;;5074286;28;20191;-72
2022/01/25 11:37:01;;;;;;;79.03;31.38;;;2.70;99.90;;;;;;5070042;28;20262;-72
2022/01/25 11:39:50;;;;;;;84.00;32.72;;;2.60;99.90;;;;;;5068529;28;20235;-72
2022/01/25 11:42:39;;;;;;;82.60;30.73;;;2.70;99.90;;;;;;5070479;28;20201;-73
2022/01/25 11:45:27;;;;;;;72.40;31.17;;;2.60;99.90;;;;;;5069743;28;20204;-72
2022/01/25 11:48:13;;;;;;;104.25;31.42;;;2.50;99.90;;;;;;5074005;28;20339;-72
2022/01/25 11:51:02;;;;;;;74.75;31.80;;;2.40;99.90;;;;;;5068673;28;20204;-75
2022/01/25 11:53:49;;;;;;;84.90;32.03;;;2.40;99.90;;;;;;5067418;28;20338;-73
2022/01/25 11:56:37;;;;;;;90.47;33.95;;;2.40;99.90;;;;;;5064949;28;20204;-72
2022/01/25 11:59:35;;;;;;;74.55;30.02;;;2.50;99.90;;;;;;5068427;28;20231;-72
2022/01/25 12:02:41;;;;;;;67.15;31.92;;;2.60;99.90;;;;;;5063513;28;20740;-72
2022/01/25 12:05:27;;;;;;;71.50;31.67;;;2.40;99.90;;;;;;5070360;28;20200;-72
2022/01/25 12:08:15;;;;;;;86.88;34.08;;;2.50;99.90;;;;;;5067460;28;20220;-72
2022/01/25 12:11:15;;;;;;;68.30;32.65;;;2.50;99.90;;;;;;5069758;28;20220;-72
2022/01/25 12:14:13;;;;;;;73.53;32.42;;;2.50;99.90;;;;;;5071153;28;20235;-73
2022/01/25 12:17:11;;;;;;;73.40;31.17;;;2.50;99.90;;;;;;5073062;28;20200;-75
2022/01/25 12:20:00;;;;;;;68.53;29.00;;;2.60;99.90;;;;;;5058129;28;20753;-72
2022/01/25 12:22:47;;;;;;;73.88;31.88;;;2.50;99.90;;;;;;5070542;28;20654;-72
2022/01/25 12:25:48;;;;;;;85.10;31.70;;;2.50;99.90;;;;;;5069796;28;20204;-72
2022/01/25 12:28:41;;;;;;;74.35;31.38;;;2.60;99.90;;;;;;5069609;28;20291;-71
2022/01/25 12:31:27;;;;;;;87.82;31.85;;;2.60;99.90;;;;;;5074340;28;20219;-72
2022/01/25 12:34:25;;;;;;;72.32;32.25;;;2.60;99.90;;;;;;5074934;28;20685;-73
2022/01/25 12:37:54;;;;;;;78.07;32.85;;;2.50;99.90;;;;;;5070878;28;20197;-72
2022/01/25 12:40:51;;;;;;;80.22;32.42;;;2.60;99.90;;;;;;5073694;28;20563;-71
2022/01/25 12:43:39;;;;;;;87.97;35.67;;;2.60;99.90;;;;;;5069526;28;20311;-72
2022/01/25 12:46:27;;;;;;;76.13;31.95;;;2.50;99.90;;;;;;5071480;28;20307;-72
2022/01/25 12:49:17;;;;;;;81.10;35.38;;;2.50;99.90;;;;;;5072826;28;20219;-73
2022/01/25 12:52:06;;;;;;;64.18;29.58;;;2.60;99.90;;;;;;5064533;28;20235;-71
2022/01/25 12:54:59;;;;;;;70.00;31.35;;;2.60;99.90;;;;;;5075142;28;20199;-72
2022/01/25 12:57:50;;;;;;;62.78;29.13;;;2.70;99.90;;;;;;5068866;28;20197;-72
2022/01/25 13:00:39;;;;;;;69.88;27.25;;;2.70;99.90;;;;;;5071391;28;20267;-72
2022/01/25 13:03:29;;;;;;;71.38;29.02;;;2.70;99.90;;;;;;5065422;28;20560;-72
2022/01/25 13:06:16;;;;;;;65.13;28.10;;;2.60;99.90;;;;;;5071402;28;20311;-75
2022/01/25 13:09:09;;;;;;;63.40;30.73;;;2.60;99.90;;;;;;5070025;28;20215;-72
2022/01/25 13:12:12;;;;;;;67.00;29.27;;;2.60;99.90;;;;;;5074924;28;20197;-72
2022/01/25 13:15:16;;;;;;;53.92;22.58;;;2.60;99.90;;;;;;5068874;28;20276;-72
2022/01/25 13:18:10;;;;;;;63.45;25.83;;;2.60;99.90;;;;;;5075407;28;20834;-71
2022/01/25 13:21:02;;;;;;;47.10;21.13;;;2.60;99.90;;;;;;5071133;28;20197;-72
2022/01/25 13:23:53;;;;;;;40.53;19.08;;;2.60;99.90;;;;;;5072171;28;20236;-71
2022/01/25 13:26:50;;;;;;;41.75;17.70;;;2.60;99.90;;;;;;5065510;28;20203;-72
2022/01/25 13:32:47;;;;;;;44.30;20.25;;;2.60;99.90;;;;;;5061313;28;20192;-71
2022/01/25 13:35:35;;;;;;;50.92;20.88;;;2.70;99.90;;;;;;5066166;28;20653;-73
2022/01/25 13:38:22;;;;;;;52.55;22.55;;;2.70;99.90;;;;;;5073097;22;20304;-87
2022/01/25 13:46:53;;;;;;;37.83;20.13;;;2.70;99.90;;;;;;5066881;28;20200;-72
2022/01/25 13:49:41;;;;;;;41.10;19.30;;;2.60;99.90;;;;;;5083101;28;20230;-72
2022/01/25 13:52:31;;;;;;;49.53;21.38;;;2.60;99.90;;;;;;5085277;28;20203;-72
2022/01/25 13:55:17;;;;;;;48.92;22.98;;;2.60;99.90;;;;;;5089103;28;20203;-72
2022/01/25 13:58:18;;;;;;;41.70;20.50;;;2.50;99.90;;;;;;5086526;28;20192;-72
2022/01/25 14:01:08;;;;;;;57.10;23.00;;;2.40;99.90;;;;;;5094031;28;20310;-72
2022/01/25 14:03:55;;;;;;;51.42;22.38;;;2.50;99.90;;;;;;5086434;28;20199;-72
2022/01/25 14:06:45;;;;;;;44.13;19.90;;;2.60;99.90;;;;;;5087780;28;20913;-73
2022/01/25 14:09:34;;;;;;;48.38;19.95;;;2.70;99.90;;;;;;5089337;28;21407;-72
2022/01/25 14:21:58;;;;;;;36.33;18.17;;;2.70;99.90;;;;;;5092802;28;20211;-72
2022/01/25 14:24:53;;;;;;;49.38;20.80;;;2.70;99.90;;;;;;5091338;28;20203;-72
2022/01/25 14:27:50;;;;;;;51.10;22.75;;;2.80;99.90;;;;;;5091822;28;20323;-72
2022/01/25 14:30:38;;;;;;;44.80;21.10;;;2.70;99.90;;;;;;5086776;28;20214;-73
2022/01/25 14:33:26;;;;;;;42.65;21.00;;;2.70;99.90;;;;;;5083260;28;20573;-72
2022/01/25 14:36:12;;;;;;;52.90;22.00;;;2.80;99.90;;;;;;5089676;28;20195;-72
2022/01/25 14:38:59;;;;;;;47.85;21.52;;;2.70;99.90;;;;;;5090963;28;20704;-72
2022/01/25 14:41:49;;;;;;;43.13;22.63;;;2.80;99.90;;;;;;5089257;28;20204;-72
2022/01/25 14:44:35;;;;;;;57.13;23.05;;;2.80;99.90;;;;;;5091267;28;20256;-71
2022/01/25 14:47:23;;;;;;;73.35;23.40;;;2.60;99.90;;;;;;5091169;28;20210;-72
2022/01/25 14:50:17;;;;;;;50.78;22.63;;;2.40;99.90;;;;;;5086003;28;20219;-72
2022/01/25 14:53:05;;;;;;;52.00;22.90;;;2.50;99.90;;;;;;5090704;28;20250;-72
2022/01/25 14:55:52;;;;;;;51.90;23.10;;;2.50;99.90;;;;;;5086440;28;20334;-72
2022/01/25 15:01:44;;;;;;;47.67;23.20;;;2.60;99.90;;;;;;5082823;28;20329;-74
2022/01/25 15:04:37;;;;;;;51.85;23.67;;;2.60;99.90;;;;;;5078353;28;20815;-73
2022/01/25 15:07:24;;;;;;;51.65;22.90;;;2.70;99.90;;;;;;5085469;28;20211;-72
2022/01/25 15:10:12;;;;;;;46.22;20.02;;;2.70;99.90;;;;;;5090543;28;20219;-73
2022/01/25 15:12:58;;;;;;;45.58;21.92;;;2.80;99.90;;;;;;5086169;28;20258;-72
2022/01/25 15:15:55;;;;;;;39.65;20.42;;;2.90;99.90;;;;;;5084084;28;20676;-72
2022/01/25 15:18:41;;;;;;;51.10;23.00;;;2.90;99.90;;;;;;5086480;28;20352;-73
2022/01/25 15:21:26;;;;;;;42.55;20.20;;;2.70;99.90;;;;;;5088260;28;20187;-73
2022/01/25 15:24:12;;;;;;;57.25;21.13;;;2.80;99.90;;;;;;5088823;28;20192;-72
2022/01/25 15:27:04;;;;;;;56.15;24.48;;;2.70;99.90;;;;;;5076513;28;20657;-73
2022/01/25 15:29:50;;;;;;;47.22;21.33;;;2.70;99.90;;;;;;5090928;28;20239;-73
2022/01/25 15:32:37;;;;;;;42.92;21.60;;;2.60;99.90;;;;;;5089537;28;20188;-72
2022/01/25 15:35:24;;;;;;;45.17;21.63;;;2.60;99.90;;;;;;5079932;28;20540;-73
2022/01/25 15:38:09;;;;;;;48.30;21.70;;;2.70;99.90;;;;;;5087023;28;20199;-72
2022/01/25 15:40:55;;;;;;;50.35;21.65;;;2.70;99.90;;;;;;5088524;28;20237;-73
2022/01/25 15:43:49;;;;;;;53.55;22.52;;;2.80;99.90;;;;;;5084080;28;20208;-72
2022/01/25 15:46:56;;;;;;;47.58;21.50;;;2.80;99.90;;;;;;5090681;28;20233;-73
2022/01/25 15:49:44;;;;;;;48.08;21.67;;;2.70;99.90;;;;;;5080003;28;20224;-73
2022/01/25 15:52:30;;;;;;;51.75;22.23;;;2.50;99.90;;;;;;5087074;28;20339;-73
2022/01/25 15:55:15;;;;;;;49.50;23.10;;;2.50;99.90;;;;;;5087199;28;20285;-73